sensor_id;sensor_type;location;lat;lon;timestamp;P1;durP1;ratioP1;P2;durP2;ratioP2
75854;SDS011;64502;59.976;30.316;2023-04-24T00:00:07;10.77;;;3.45;;
75854;SDS011;64502;59.976;30.316;2023-04-24T00:02:34;9.40;;;3.05;;
75854;SDS011;64502;59.976;30.316;2023-04-24T00:05:02;9.05;;;3.60;;
75854;SDS011;64502;59.976;30.316;2023-04-24T00:07:29;12.32;;;3.00;;
75854;SDS011;64502;59.976;30.316;2023-04-24T00:09:55;9.88;;;3.72;;
75854;SDS011;64502;59.976;30.316;2023-04-24T00:12:20;7.70;;;3.20;;
75854;SDS011;64502;59.976;30.316;2023-04-24T00:14:46;8.80;;;2.95;;
75854;SDS011;64502;59.976;30.316;2023-04-24T00:17:12;7.90;;;3.05;;
75854;SDS011;64502;59.976;30.316;2023-04-24T00:19:38;12.07;;;3.30;;
75854;SDS011;64502;59.976;30.316;2023-04-24T00:22:03;6.05;;;2.83;;
75854;SDS011;64502;59.976;30.316;2023-04-24T00:24:29;10.18;;;3.63;;
75854;SDS011;64502;59.976;30.316;2023-04-24T00:26:54;7.50;;;3.70;;
75854;SDS011;64502;59.976;30.316;2023-04-24T00:29:20;7.25;;;3.13;;
75854;SDS011;64502;59.976;30.316;2023-04-24T00:31:45;13.82;;;3.00;;
75854;SDS011;64502;59.976;30.316;2023-04-24T00:34:11;6.32;;;2.45;;
75854;SDS011;64502;59.976;30.316;2023-04-24T00:36:37;6.65;;;2.35;;
75854;SDS011;64502;59.976;30.316;2023-04-24T00:39:03;11.35;;;2.83;;
75854;SDS011;64502;59.976;30.316;2023-04-24T00:41:28;5.25;;;2.60;;
75854;SDS011;64502;59.976;30.316;2023-04-24T00:43:54;5.50;;;2.28;;
75854;SDS011;64502;59.976;30.316;2023-04-24T00:46:20;6.22;;;2.58;;
75854;SDS011;64502;59.976;30.316;2023-04-24T00:48:46;6.13;;;2.47;;
75854;SDS011;64502;59.976;30.316;2023-04-24T00:51:12;11.93;;;2.83;;
75854;SDS011;64502;59.976;30.316;2023-04-24T00:53:39;7.05;;;2.65;;
75854;SDS011;64502;59.976;30.316;2023-04-24T00:56:04;7.35;;;2.50;;
75854;SDS011;64502;59.976;30.316;2023-04-24T00:58:30;7.05;;;2.45;;
75854;SDS011;64502;59.976;30.316;2023-04-24T01:00:57;9.27;;;2.40;;
75854;SDS011;64502;59.976;30.316;2023-04-24T01:03:28;7.10;;;2.00;;
75854;SDS011;64502;59.976;30.316;2023-04-24T01:05:57;6.97;;;3.03;;
75854;SDS011;64502;59.976;30.316;2023-04-24T01:08:23;7.28;;;2.50;;
75854;SDS011;64502;59.976;30.316;2023-04-24T01:10:50;8.82;;;2.42;;
75854;SDS011;64502;59.976;30.316;2023-04-24T01:13:17;6.18;;;2.80;;
75854;SDS011;64502;59.976;30.316;2023-04-24T01:15:44;12.30;;;3.08;;
75854;SDS011;64502;59.976;30.316;2023-04-24T01:18:10;6.20;;;2.28;;
75854;SDS011;64502;59.976;30.316;2023-04-24T01:23:05;8.77;;;2.90;;
75854;SDS011;64502;59.976;30.316;2023-04-24T01:25:32;7.70;;;2.72;;
75854;SDS011;64502;59.976;30.316;2023-04-24T01:27:58;5.25;;;2.35;;
75854;SDS011;64502;59.976;30.316;2023-04-24T01:30:23;8.02;;;2.72;;
75854;SDS011;64502;59.976;30.316;2023-04-24T01:32:49;6.97;;;2.33;;
75854;SDS011;64502;59.976;30.316;2023-04-24T01:35:15;5.80;;;2.15;;
75854;SDS011;64502;59.976;30.316;2023-04-24T01:37:40;6.30;;;2.25;;
75854;SDS011;64502;59.976;30.316;2023-04-24T01:40:06;4.70;;;2.70;;
75854;SDS011;64502;59.976;30.316;2023-04-24T01:42:32;5.25;;;2.58;;
75854;SDS011;64502;59.976;30.316;2023-04-24T01:44:59;7.47;;;2.20;;
75854;SDS011;64502;59.976;30.316;2023-04-24T01:47:24;5.40;;;2.20;;
75854;SDS011;64502;59.976;30.316;2023-04-24T01:49:50;9.13;;;2.20;;
75854;SDS011;64502;59.976;30.316;2023-04-24T01:52:16;5.50;;;2.40;;
75854;SDS011;64502;59.976;30.316;2023-04-24T01:54:44;6.50;;;2.40;;
75854;SDS011;64502;59.976;30.316;2023-04-24T01:57:10;9.18;;;1.98;;
75854;SDS011;64502;59.976;30.316;2023-04-24T01:59:35;6.78;;;2.65;;
75854;SDS011;64502;59.976;30.316;2023-04-24T02:02:01;11.02;;;3.25;;
75854;SDS011;64502;59.976;30.316;2023-04-24T02:04:27;8.70;;;3.10;;
75854;SDS011;64502;59.976;30.316;2023-04-24T02:06:53;10.45;;;3.13;;
75854;SDS011;64502;59.976;30.316;2023-04-24T02:09:19;10.38;;;3.35;;
75854;SDS011;64502;59.976;30.316;2023-04-24T02:11:44;8.68;;;3.63;;
75854;SDS011;64502;59.976;30.316;2023-04-24T02:14:10;9.60;;;3.35;;
75854;SDS011;64502;59.976;30.316;2023-04-24T02:16:35;10.13;;;3.13;;
75854;SDS011;64502;59.976;30.316;2023-04-24T02:19:01;12.18;;;3.20;;
75854;SDS011;64502;59.976;30.316;2023-04-24T02:21:27;6.32;;;2.45;;
75854;SDS011;64502;59.976;30.316;2023-04-24T02:23:53;12.40;;;3.17;;
75854;SDS011;64502;59.976;30.316;2023-04-24T02:26:19;7.88;;;2.90;;
75854;SDS011;64502;59.976;30.316;2023-04-24T02:28:45;8.25;;;2.63;;
75854;SDS011;64502;59.976;30.316;2023-04-24T02:31:10;6.43;;;2.38;;
75854;SDS011;64502;59.976;30.316;2023-04-24T02:33:36;6.90;;;2.75;;
75854;SDS011;64502;59.976;30.316;2023-04-24T02:36:01;5.55;;;2.45;;
75854;SDS011;64502;59.976;30.316;2023-04-24T02:38:28;9.05;;;2.45;;
75854;SDS011;64502;59.976;30.316;2023-04-24T02:40:54;7.82;;;2.50;;
75854;SDS011;64502;59.976;30.316;2023-04-24T02:43:19;6.05;;;2.33;;
75854;SDS011;64502;59.976;30.316;2023-04-24T02:45:45;4.45;;;2.00;;
75854;SDS011;64502;59.976;30.316;2023-04-24T02:48:11;7.25;;;2.65;;
75854;SDS011;64502;59.976;30.316;2023-04-24T02:50:36;7.65;;;2.63;;
75854;SDS011;64502;59.976;30.316;2023-04-24T02:53:02;8.65;;;2.47;;
75854;SDS011;64502;59.976;30.316;2023-04-24T02:55:27;5.13;;;2.63;;
75854;SDS011;64502;59.976;30.316;2023-04-24T02:57:53;14.10;;;2.90;;
75854;SDS011;64502;59.976;30.316;2023-04-24T03:00:18;12.48;;;2.30;;
75854;SDS011;64502;59.976;30.316;2023-04-24T03:02:44;6.40;;;2.13;;
75854;SDS011;64502;59.976;30.316;2023-04-24T03:05:10;5.40;;;2.30;;
75854;SDS011;64502;59.976;30.316;2023-04-24T03:07:37;8.25;;;2.15;;
75854;SDS011;64502;59.976;30.316;2023-04-24T03:10:03;8.98;;;3.20;;
75854;SDS011;64502;59.976;30.316;2023-04-24T03:12:30;7.25;;;2.38;;
75854;SDS011;64502;59.976;30.316;2023-04-24T03:14:56;6.43;;;2.63;;
75854;SDS011;64502;59.976;30.316;2023-04-24T03:17:21;9.77;;;2.42;;
75854;SDS011;64502;59.976;30.316;2023-04-24T03:19:47;10.93;;;2.80;;
75854;SDS011;64502;59.976;30.316;2023-04-24T03:22:12;5.90;;;2.35;;
75854;SDS011;64502;59.976;30.316;2023-04-24T03:24:38;8.57;;;2.72;;
75854;SDS011;64502;59.976;30.316;2023-04-24T03:27:03;5.78;;;2.42;;
75854;SDS011;64502;59.976;30.316;2023-04-24T03:29:29;8.80;;;2.38;;
75854;SDS011;64502;59.976;30.316;2023-04-24T03:31:54;6.28;;;3.15;;
75854;SDS011;64502;59.976;30.316;2023-04-24T03:34:20;13.70;;;3.03;;
75854;SDS011;64502;59.976;30.316;2023-04-24T03:36:45;13.93;;;2.70;;
75854;SDS011;64502;59.976;30.316;2023-04-24T03:39:12;5.10;;;2.35;;
75854;SDS011;64502;59.976;30.316;2023-04-24T03:41:38;14.15;;;2.90;;
75854;SDS011;64502;59.976;30.316;2023-04-24T03:44:03;8.57;;;3.15;;
75854;SDS011;64502;59.976;30.316;2023-04-24T03:46:29;7.20;;;3.03;;
75854;SDS011;64502;59.976;30.316;2023-04-24T03:48:54;6.10;;;2.65;;
75854;SDS011;64502;59.976;30.316;2023-04-24T03:51:20;7.03;;;3.08;;
75854;SDS011;64502;59.976;30.316;2023-04-24T03:53:45;8.43;;;2.80;;
75854;SDS011;64502;59.976;30.316;2023-04-24T03:56:11;6.70;;;3.03;;
75854;SDS011;64502;59.976;30.316;2023-04-24T03:58:36;9.45;;;2.53;;
75854;SDS011;64502;59.976;30.316;2023-04-24T04:01:02;8.38;;;2.58;;
75854;SDS011;64502;59.976;30.316;2023-04-24T04:03:28;6.32;;;2.65;;
75854;SDS011;64502;59.976;30.316;2023-04-24T04:05:53;6.53;;;2.70;;
75854;SDS011;64502;59.976;30.316;2023-04-24T04:08:19;9.32;;;3.10;;
75854;SDS011;64502;59.976;30.316;2023-04-24T04:10:45;10.10;;;3.45;;
75854;SDS011;64502;59.976;30.316;2023-04-24T04:13:10;7.15;;;2.92;;
75854;SDS011;64502;59.976;30.316;2023-04-24T04:15:36;7.40;;;3.13;;
75854;SDS011;64502;59.976;30.316;2023-04-24T04:18:01;12.20;;;4.10;;
75854;SDS011;64502;59.976;30.316;2023-04-24T04:20:27;12.18;;;3.55;;
75854;SDS011;64502;59.976;30.316;2023-04-24T04:22:52;10.02;;;2.72;;
75854;SDS011;64502;59.976;30.316;2023-04-24T04:25:18;6.13;;;2.33;;
75854;SDS011;64502;59.976;30.316;2023-04-24T04:27:45;10.40;;;3.00;;
75854;SDS011;64502;59.976;30.316;2023-04-24T04:30:12;9.10;;;2.92;;
75854;SDS011;64502;59.976;30.316;2023-04-24T04:32:38;9.00;;;2.67;;
75854;SDS011;64502;59.976;30.316;2023-04-24T04:35:04;7.55;;;3.13;;
75854;SDS011;64502;59.976;30.316;2023-04-24T04:37:30;12.85;;;2.63;;
75854;SDS011;64502;59.976;30.316;2023-04-24T04:39:57;13.90;;;3.22;;
75854;SDS011;64502;59.976;30.316;2023-04-24T04:42:25;9.02;;;3.15;;
75854;SDS011;64502;59.976;30.316;2023-04-24T04:44:52;13.15;;;3.10;;
75854;SDS011;64502;59.976;30.316;2023-04-24T04:47:18;9.60;;;3.83;;
75854;SDS011;64502;59.976;30.316;2023-04-24T04:49:49;12.95;;;3.63;;
75854;SDS011;64502;59.976;30.316;2023-04-24T04:52:18;8.85;;;3.20;;
75854;SDS011;64502;59.976;30.316;2023-04-24T04:54:44;14.60;;;3.63;;
75854;SDS011;64502;59.976;30.316;2023-04-24T04:57:10;9.23;;;3.47;;
75854;SDS011;64502;59.976;30.316;2023-04-24T04:59:35;10.88;;;3.15;;
75854;SDS011;64502;59.976;30.316;2023-04-24T05:02:02;8.80;;;3.20;;
75854;SDS011;64502;59.976;30.316;2023-04-24T05:04:27;9.95;;;3.83;;
75854;SDS011;64502;59.976;30.316;2023-04-24T05:06:53;8.15;;;3.60;;
75854;SDS011;64502;59.976;30.316;2023-04-24T05:09:18;10.95;;;3.92;;
75854;SDS011;64502;59.976;30.316;2023-04-24T05:11:44;6.20;;;3.58;;
75854;SDS011;64502;59.976;30.316;2023-04-24T05:14:09;12.20;;;3.58;;
75854;SDS011;64502;59.976;30.316;2023-04-24T05:16:35;11.68;;;4.85;;
75854;SDS011;64502;59.976;30.316;2023-04-24T05:19:02;12.90;;;3.83;;
75854;SDS011;64502;59.976;30.316;2023-04-24T05:21:27;11.88;;;3.75;;
75854;SDS011;64502;59.976;30.316;2023-04-24T05:23:53;8.60;;;2.90;;
75854;SDS011;64502;59.976;30.316;2023-04-24T05:26:18;10.30;;;3.55;;
75854;SDS011;64502;59.976;30.316;2023-04-24T05:28:44;6.32;;;3.17;;
75854;SDS011;64502;59.976;30.316;2023-04-24T05:31:09;10.95;;;3.38;;
75854;SDS011;64502;59.976;30.316;2023-04-24T05:33:35;11.55;;;3.10;;
75854;SDS011;64502;59.976;30.316;2023-04-24T05:36:00;9.63;;;2.92;;
75854;SDS011;64502;59.976;30.316;2023-04-24T05:38:26;5.95;;;2.75;;
75854;SDS011;64502;59.976;30.316;2023-04-24T05:40:51;8.40;;;3.00;;
75854;SDS011;64502;59.976;30.316;2023-04-24T05:43:17;7.65;;;3.00;;
75854;SDS011;64502;59.976;30.316;2023-04-24T05:45:42;9.38;;;3.17;;
75854;SDS011;64502;59.976;30.316;2023-04-24T05:48:07;8.07;;;2.72;;
75854;SDS011;64502;59.976;30.316;2023-04-24T05:50:33;7.20;;;2.10;;
75854;SDS011;64502;59.976;30.316;2023-04-24T05:52:58;8.38;;;2.92;;
75854;SDS011;64502;59.976;30.316;2023-04-24T05:55:24;11.23;;;3.22;;
75854;SDS011;64502;59.976;30.316;2023-04-24T05:57:50;10.52;;;2.55;;
75854;SDS011;64502;59.976;30.316;2023-04-24T06:00:16;11.18;;;2.97;;
75854;SDS011;64502;59.976;30.316;2023-04-24T06:02:43;8.85;;;2.85;;
75854;SDS011;64502;59.976;30.316;2023-04-24T06:05:09;11.70;;;3.60;;
75854;SDS011;64502;59.976;30.316;2023-04-24T06:07:34;9.70;;;2.65;;
75854;SDS011;64502;59.976;30.316;2023-04-24T06:10:00;10.65;;;3.40;;
75854;SDS011;64502;59.976;30.316;2023-04-24T06:12:26;8.32;;;2.63;;
75854;SDS011;64502;59.976;30.316;2023-04-24T06:14:52;10.90;;;2.97;;
75854;SDS011;64502;59.976;30.316;2023-04-24T06:17:17;12.00;;;3.42;;
75854;SDS011;64502;59.976;30.316;2023-04-24T06:19:43;6.47;;;2.35;;
75854;SDS011;64502;59.976;30.316;2023-04-24T06:22:09;8.23;;;3.15;;
75854;SDS011;64502;59.976;30.316;2023-04-24T06:24:35;7.43;;;2.72;;
75854;SDS011;64502;59.976;30.316;2023-04-24T06:27:01;9.80;;;2.95;;
75854;SDS011;64502;59.976;30.316;2023-04-24T06:29:27;6.95;;;2.67;;
75854;SDS011;64502;59.976;30.316;2023-04-24T06:31:52;10.25;;;3.22;;
75854;SDS011;64502;59.976;30.316;2023-04-24T06:34:18;5.28;;;2.55;;
75854;SDS011;64502;59.976;30.316;2023-04-24T06:36:43;6.68;;;2.58;;
75854;SDS011;64502;59.976;30.316;2023-04-24T06:39:09;7.60;;;2.45;;
75854;SDS011;64502;59.976;30.316;2023-04-24T06:41:35;9.68;;;2.70;;
75854;SDS011;64502;59.976;30.316;2023-04-24T06:44:00;14.15;;;3.28;;
75854;SDS011;64502;59.976;30.316;2023-04-24T06:46:26;7.57;;;2.58;;
75854;SDS011;64502;59.976;30.316;2023-04-24T06:48:52;18.80;;;3.08;;
75854;SDS011;64502;59.976;30.316;2023-04-24T06:51:21;12.07;;;2.53;;
75854;SDS011;64502;59.976;30.316;2023-04-24T06:53:54;7.00;;;2.30;;
75854;SDS011;64502;59.976;30.316;2023-04-24T06:56:21;17.95;;;2.70;;
75854;SDS011;64502;59.976;30.316;2023-04-24T06:58:47;11.55;;;2.17;;
75854;SDS011;64502;59.976;30.316;2023-04-24T07:01:13;9.05;;;2.67;;
75854;SDS011;64502;59.976;30.316;2023-04-24T07:03:38;6.35;;;2.50;;
75854;SDS011;64502;59.976;30.316;2023-04-24T07:06:04;19.02;;;2.83;;
75854;SDS011;64502;59.976;30.316;2023-04-24T07:08:30;6.80;;;2.85;;
75854;SDS011;64502;59.976;30.316;2023-04-24T07:10:56;12.60;;;2.40;;
75854;SDS011;64502;59.976;30.316;2023-04-24T07:13:22;10.55;;;2.28;;
75854;SDS011;64502;59.976;30.316;2023-04-24T07:15:48;11.88;;;2.50;;
75854;SDS011;64502;59.976;30.316;2023-04-24T07:18:19;6.95;;;2.05;;
75854;SDS011;64502;59.976;30.316;2023-04-24T07:20:45;8.90;;;2.85;;
75854;SDS011;64502;59.976;30.316;2023-04-24T07:23:10;13.65;;;2.55;;
75854;SDS011;64502;59.976;30.316;2023-04-24T07:25:36;7.18;;;2.42;;
75854;SDS011;64502;59.976;30.316;2023-04-24T07:28:01;8.45;;;1.67;;
75854;SDS011;64502;59.976;30.316;2023-04-24T07:30:27;7.47;;;2.03;;
75854;SDS011;64502;59.976;30.316;2023-04-24T07:32:55;14.35;;;2.67;;
75854;SDS011;64502;59.976;30.316;2023-04-24T07:35:21;9.63;;;1.70;;
75854;SDS011;64502;59.976;30.316;2023-04-24T07:37:46;15.18;;;2.55;;
75854;SDS011;64502;59.976;30.316;2023-04-24T07:40:14;16.10;;;2.50;;
75854;SDS011;64502;59.976;30.316;2023-04-24T07:42:39;9.45;;;2.25;;
75854;SDS011;64502;59.976;30.316;2023-04-24T07:45:05;15.45;;;2.47;;
75854;SDS011;64502;59.976;30.316;2023-04-24T07:47:31;12.32;;;2.97;;
75854;SDS011;64502;59.976;30.316;2023-04-24T07:49:57;12.77;;;2.53;;
75854;SDS011;64502;59.976;30.316;2023-04-24T07:52:24;12.75;;;2.47;;
75854;SDS011;64502;59.976;30.316;2023-04-24T07:54:50;16.95;;;3.08;;
75854;SDS011;64502;59.976;30.316;2023-04-24T07:57:17;13.93;;;2.28;;
75854;SDS011;64502;59.976;30.316;2023-04-24T07:59:43;11.30;;;1.77;;
75854;SDS011;64502;59.976;30.316;2023-04-24T08:02:09;10.52;;;1.92;;
75854;SDS011;64502;59.976;30.316;2023-04-24T08:04:34;14.63;;;2.40;;
75854;SDS011;64502;59.976;30.316;2023-04-24T08:07:00;10.05;;;2.60;;
75854;SDS011;64502;59.976;30.316;2023-04-24T08:09:25;11.07;;;2.10;;
75854;SDS011;64502;59.976;30.316;2023-04-24T08:11:50;6.28;;;1.98;;
75854;SDS011;64502;59.976;30.316;2023-04-24T08:14:16;12.35;;;2.10;;
75854;SDS011;64502;59.976;30.316;2023-04-24T08:16:41;10.48;;;2.10;;
75854;SDS011;64502;59.976;30.316;2023-04-24T08:19:07;30.02;;;3.53;;
75854;SDS011;64502;59.976;30.316;2023-04-24T08:21:33;11.80;;;2.30;;
75854;SDS011;64502;59.976;30.316;2023-04-24T08:23:58;14.20;;;2.33;;
75854;SDS011;64502;59.976;30.316;2023-04-24T08:26:24;14.65;;;2.40;;
75854;SDS011;64502;59.976;30.316;2023-04-24T08:28:49;10.98;;;2.78;;
75854;SDS011;64502;59.976;30.316;2023-04-24T08:31:15;15.20;;;2.78;;
75854;SDS011;64502;59.976;30.316;2023-04-24T08:33:40;16.80;;;2.28;;
75854;SDS011;64502;59.976;30.316;2023-04-24T08:36:06;15.57;;;2.95;;
75854;SDS011;64502;59.976;30.316;2023-04-24T08:38:32;14.80;;;2.35;;
75854;SDS011;64502;59.976;30.316;2023-04-24T08:40:59;9.02;;;1.80;;
75854;SDS011;64502;59.976;30.316;2023-04-24T08:43:25;10.02;;;2.30;;
75854;SDS011;64502;59.976;30.316;2023-04-24T08:45:52;9.30;;;2.28;;
75854;SDS011;64502;59.976;30.316;2023-04-24T08:50:47;16.42;;;2.75;;
75854;SDS011;64502;59.976;30.316;2023-04-24T08:53:15;13.35;;;2.55;;
75854;SDS011;64502;59.976;30.316;2023-04-24T08:55:41;29.33;;;3.42;;
75854;SDS011;64502;59.976;30.316;2023-04-24T08:58:08;14.95;;;2.42;;
75854;SDS011;64502;59.976;30.316;2023-04-24T09:00:34;11.93;;;2.20;;
75854;SDS011;64502;59.976;30.316;2023-04-24T09:03:00;12.45;;;3.00;;
75854;SDS011;64502;59.976;30.316;2023-04-24T09:05:29;12.35;;;2.72;;
75854;SDS011;64502;59.976;30.316;2023-04-24T09:07:56;16.20;;;2.55;;
75854;SDS011;64502;59.976;30.316;2023-04-24T09:10:23;12.02;;;3.00;;
75854;SDS011;64502;59.976;30.316;2023-04-24T09:12:52;16.52;;;2.80;;
75854;SDS011;64502;59.976;30.316;2023-04-24T09:15:19;14.00;;;2.72;;
75854;SDS011;64502;59.976;30.316;2023-04-24T09:17:48;10.35;;;2.95;;
75854;SDS011;64502;59.976;30.316;2023-04-24T09:20:13;18.08;;;3.00;;
75854;SDS011;64502;59.976;30.316;2023-04-24T09:22:39;7.32;;;2.10;;
75854;SDS011;64502;59.976;30.316;2023-04-24T09:25:08;8.15;;;2.72;;
75854;SDS011;64502;59.976;30.316;2023-04-24T09:27:34;23.98;;;3.00;;
75854;SDS011;64502;59.976;30.316;2023-04-24T09:30:00;13.30;;;2.92;;
75854;SDS011;64502;59.976;30.316;2023-04-24T09:32:26;11.32;;;3.10;;
75854;SDS011;64502;59.976;30.316;2023-04-24T09:37:42;10.00;;;2.60;;
75854;SDS011;64502;59.976;30.316;2023-04-24T09:42:40;8.68;;;2.55;;
75854;SDS011;64502;59.976;30.316;2023-04-24T09:45:10;8.77;;;2.00;;
75854;SDS011;64502;59.976;30.316;2023-04-24T09:47:39;9.25;;;2.33;;
75854;SDS011;64502;59.976;30.316;2023-04-24T09:50:11;6.95;;;2.20;;
75854;SDS011;64502;59.976;30.316;2023-04-24T09:52:41;10.27;;;2.97;;
75854;SDS011;64502;59.976;30.316;2023-04-24T09:57:46;6.10;;;2.50;;
75854;SDS011;64502;59.976;30.316;2023-04-24T10:00:21;9.95;;;2.42;;
75854;SDS011;64502;59.976;30.316;2023-04-24T10:03:01;15.80;;;2.78;;
75854;SDS011;64502;59.976;30.316;2023-04-24T10:05:29;9.02;;;2.90;;
75854;SDS011;64502;59.976;30.316;2023-04-24T10:07:56;9.65;;;2.83;;
75854;SDS011;64502;59.976;30.316;2023-04-24T10:10:23;6.68;;;2.83;;
75854;SDS011;64502;59.976;30.316;2023-04-24T10:12:48;8.93;;;2.65;;
75854;SDS011;64502;59.976;30.316;2023-04-24T10:15:16;7.95;;;2.45;;
75854;SDS011;64502;59.976;30.316;2023-04-24T10:17:45;6.78;;;2.67;;
75854;SDS011;64502;59.976;30.316;2023-04-24T10:20:24;9.40;;;2.50;;
75854;SDS011;64502;59.976;30.316;2023-04-24T10:22:52;6.22;;;2.47;;
75854;SDS011;64502;59.976;30.316;2023-04-24T10:25:28;6.22;;;2.63;;
75854;SDS011;64502;59.976;30.316;2023-04-24T10:27:56;9.30;;;2.90;;
75854;SDS011;64502;59.976;30.316;2023-04-24T10:30:24;9.50;;;3.10;;
75854;SDS011;64502;59.976;30.316;2023-04-24T10:33:02;8.05;;;2.15;;
75854;SDS011;64502;59.976;30.316;2023-04-24T10:35:32;9.48;;;2.75;;
75854;SDS011;64502;59.976;30.316;2023-04-24T10:38:06;6.80;;;2.55;;
75854;SDS011;64502;59.976;30.316;2023-04-24T10:40:34;8.25;;;2.78;;
75854;SDS011;64502;59.976;30.316;2023-04-24T10:43:07;6.68;;;2.92;;
75854;SDS011;64502;59.976;30.316;2023-04-24T10:45:36;5.63;;;2.55;;
75854;SDS011;64502;59.976;30.316;2023-04-24T10:48:03;4.95;;;2.47;;
75854;SDS011;64502;59.976;30.316;2023-04-24T10:53:19;6.25;;;2.88;;
75854;SDS011;64502;59.976;30.316;2023-04-24T10:55:50;6.50;;;2.30;;
75854;SDS011;64502;59.976;30.316;2023-04-24T10:58:17;5.15;;;2.22;;
75854;SDS011;64502;59.976;30.316;2023-04-24T11:00:57;6.20;;;2.33;;
75854;SDS011;64502;59.976;30.316;2023-04-24T11:03:28;6.60;;;2.00;;
75854;SDS011;64502;59.976;30.316;2023-04-24T11:06:02;3.85;;;2.85;;
75854;SDS011;64502;59.976;30.316;2023-04-24T11:08:30;7.53;;;2.20;;
75854;SDS011;64502;59.976;30.316;2023-04-24T11:10:57;4.70;;;2.50;;
75854;SDS011;64502;59.976;30.316;2023-04-24T11:21:43;4.53;;;2.50;;
75854;SDS011;64502;59.976;30.316;2023-04-24T11:24:24;7.80;;;2.63;;
75854;SDS011;64502;59.976;30.316;2023-04-24T11:27:01;5.38;;;2.17;;
75854;SDS011;64502;59.976;30.316;2023-04-24T11:34:41;5.18;;;2.38;;
75854;SDS011;64502;59.976;30.316;2023-04-24T11:37:06;7.13;;;2.15;;
75854;SDS011;64502;59.976;30.316;2023-04-24T11:39:36;13.35;;;2.50;;
75854;SDS011;64502;59.976;30.316;2023-04-24T11:42:02;5.90;;;2.55;;
75854;SDS011;64502;59.976;30.316;2023-04-24T11:44:28;6.68;;;2.58;;
75854;SDS011;64502;59.976;30.316;2023-04-24T11:46:55;8.02;;;2.80;;
75854;SDS011;64502;59.976;30.316;2023-04-24T11:49:21;12.52;;;3.47;;
75854;SDS011;64502;59.976;30.316;2023-04-24T11:51:47;9.02;;;2.45;;
75854;SDS011;64502;59.976;30.316;2023-04-24T11:54:12;10.23;;;2.50;;
75854;SDS011;64502;59.976;30.316;2023-04-24T11:56:38;10.82;;;2.60;;
75854;SDS011;64502;59.976;30.316;2023-04-24T11:59:04;5.70;;;2.83;;
75854;SDS011;64502;59.976;30.316;2023-04-24T12:01:29;6.35;;;2.42;;
75854;SDS011;64502;59.976;30.316;2023-04-24T12:03:59;5.45;;;2.30;;
75854;SDS011;64502;59.976;30.316;2023-04-24T12:06:25;6.35;;;2.03;;
75854;SDS011;64502;59.976;30.316;2023-04-24T12:08:52;5.35;;;2.10;;
75854;SDS011;64502;59.976;30.316;2023-04-24T12:11:20;5.63;;;2.53;;
75854;SDS011;64502;59.976;30.316;2023-04-24T12:13:45;9.32;;;2.92;;
75854;SDS011;64502;59.976;30.316;2023-04-24T12:16:11;12.00;;;2.72;;
75854;SDS011;64502;59.976;30.316;2023-04-24T12:18:41;14.48;;;2.45;;
75854;SDS011;64502;59.976;30.316;2023-04-24T12:23:42;7.00;;;3.25;;
75854;SDS011;64502;59.976;30.316;2023-04-24T12:26:10;6.72;;;2.53;;
75854;SDS011;64502;59.976;30.316;2023-04-24T12:28:36;7.32;;;2.42;;
75854;SDS011;64502;59.976;30.316;2023-04-24T12:31:03;8.63;;;2.70;;
75854;SDS011;64502;59.976;30.316;2023-04-24T12:33:31;8.25;;;2.83;;
75854;SDS011;64502;59.976;30.316;2023-04-24T12:35:58;6.60;;;2.58;;
75854;SDS011;64502;59.976;30.316;2023-04-24T12:38:25;6.93;;;2.55;;
75854;SDS011;64502;59.976;30.316;2023-04-24T12:41:04;8.75;;;2.63;;
75854;SDS011;64502;59.976;30.316;2023-04-24T12:43:31;4.57;;;2.65;;
75854;SDS011;64502;59.976;30.316;2023-04-24T12:45:57;5.18;;;2.70;;
75854;SDS011;64502;59.976;30.316;2023-04-24T12:48:22;8.48;;;2.45;;
75854;SDS011;64502;59.976;30.316;2023-04-24T12:50:48;8.68;;;2.80;;
75854;SDS011;64502;59.976;30.316;2023-04-24T12:53:14;5.55;;;2.20;;
75854;SDS011;64502;59.976;30.316;2023-04-24T12:55:41;6.80;;;2.67;;
75854;SDS011;64502;59.976;30.316;2023-04-24T12:58:06;10.77;;;2.80;;
75854;SDS011;64502;59.976;30.316;2023-04-24T13:00:32;6.55;;;2.60;;
75854;SDS011;64502;59.976;30.316;2023-04-24T13:02:58;5.70;;;2.88;;
75854;SDS011;64502;59.976;30.316;2023-04-24T13:05:24;6.82;;;3.20;;
75854;SDS011;64502;59.976;30.316;2023-04-24T13:07:50;5.20;;;2.35;;
75854;SDS011;64502;59.976;30.316;2023-04-24T13:10:15;5.88;;;2.17;;
75854;SDS011;64502;59.976;30.316;2023-04-24T13:12:41;5.03;;;1.92;;
75854;SDS011;64502;59.976;30.316;2023-04-24T13:15:10;7.53;;;2.80;;
75854;SDS011;64502;59.976;30.316;2023-04-24T13:17:35;8.30;;;2.95;;
75854;SDS011;64502;59.976;30.316;2023-04-24T13:20:01;5.50;;;3.05;;
75854;SDS011;64502;59.976;30.316;2023-04-24T13:22:27;4.00;;;2.50;;
75854;SDS011;64502;59.976;30.316;2023-04-24T13:24:53;5.95;;;3.47;;
75854;SDS011;64502;59.976;30.316;2023-04-24T13:27:18;8.90;;;3.47;;
75854;SDS011;64502;59.976;30.316;2023-04-24T13:29:45;6.35;;;2.63;;
75854;SDS011;64502;59.976;30.316;2023-04-24T13:32:11;6.32;;;2.70;;
75854;SDS011;64502;59.976;30.316;2023-04-24T13:34:36;6.90;;;3.55;;
75854;SDS011;64502;59.976;30.316;2023-04-24T13:37:02;8.70;;;3.47;;
75854;SDS011;64502;59.976;30.316;2023-04-24T13:39:32;8.50;;;2.72;;
75854;SDS011;64502;59.976;30.316;2023-04-24T13:41:58;6.82;;;2.63;;
75854;SDS011;64502;59.976;30.316;2023-04-24T13:44:24;8.52;;;3.45;;
75854;SDS011;64502;59.976;30.316;2023-04-24T13:46:51;9.30;;;3.30;;
75854;SDS011;64502;59.976;30.316;2023-04-24T13:51:46;7.28;;;3.13;;
75854;SDS011;64502;59.976;30.316;2023-04-24T13:54:12;13.90;;;3.80;;
75854;SDS011;64502;59.976;30.316;2023-04-24T13:56:38;9.90;;;3.60;;
75854;SDS011;64502;59.976;30.316;2023-04-24T13:59:07;7.05;;;4.18;;
75854;SDS011;64502;59.976;30.316;2023-04-24T14:01:33;7.25;;;3.92;;
75854;SDS011;64502;59.976;30.316;2023-04-24T14:03:59;8.27;;;3.60;;
75854;SDS011;64502;59.976;30.316;2023-04-24T14:06:25;12.65;;;4.45;;
75854;SDS011;64502;59.976;30.316;2023-04-24T14:08:50;7.38;;;4.50;;
75854;SDS011;64502;59.976;30.316;2023-04-24T14:11:16;9.05;;;4.60;;
75854;SDS011;64502;59.976;30.316;2023-04-24T14:13:43;8.57;;;4.70;;
75854;SDS011;64502;59.976;30.316;2023-04-24T14:16:08;10.25;;;4.60;;
75854;SDS011;64502;59.976;30.316;2023-04-24T14:18:34;9.40;;;4.50;;
75854;SDS011;64502;59.976;30.316;2023-04-24T14:21:01;10.18;;;4.85;;
75854;SDS011;64502;59.976;30.316;2023-04-24T14:23:27;9.77;;;4.50;;
75854;SDS011;64502;59.976;30.316;2023-04-24T14:25:53;8.27;;;4.43;;
75854;SDS011;64502;59.976;30.316;2023-04-24T14:28:19;8.23;;;4.15;;
75854;SDS011;64502;59.976;30.316;2023-04-24T14:30:45;8.38;;;4.43;;
75854;SDS011;64502;59.976;30.316;2023-04-24T14:33:12;9.48;;;5.03;;
75854;SDS011;64502;59.976;30.316;2023-04-24T14:35:38;8.52;;;5.00;;
75854;SDS011;64502;59.976;30.316;2023-04-24T14:38:04;11.80;;;5.32;;
75854;SDS011;64502;59.976;30.316;2023-04-24T14:40:30;11.85;;;5.18;;
75854;SDS011;64502;59.976;30.316;2023-04-24T14:42:56;9.15;;;5.63;;
75854;SDS011;64502;59.976;30.316;2023-04-24T14:45:22;9.52;;;5.68;;
75854;SDS011;64502;59.976;30.316;2023-04-24T14:47:48;8.43;;;5.53;;
75854;SDS011;64502;59.976;30.316;2023-04-24T14:50:14;10.07;;;6.53;;
75854;SDS011;64502;59.976;30.316;2023-04-24T14:52:39;10.88;;;6.00;;
75854;SDS011;64502;59.976;30.316;2023-04-24T14:55:05;10.15;;;5.82;;
75854;SDS011;64502;59.976;30.316;2023-04-24T14:57:32;11.65;;;6.70;;
75854;SDS011;64502;59.976;30.316;2023-04-24T14:59:58;12.20;;;6.85;;